Thunder radar more information blitzortung!


Radar de pluja more information rain snow radar


Visita la nostra xarxa de llocs de meteo:

Template documentation
and downloads

And another site



No particular awareness of the weather is required.    There are no Weather-warnings

Pagina Historial Weather Underground text

Diari Resum Juny 13, 2016 Unitats:  Mètric    Imperial   Tant
« Previous Dia
SegĂźent Dia »
Diari Setmana Mensual Anual Personalitzada
  Maxima: Minima: Media:
Temperatura: 27.0 °C 17.9 °C 22.9 °C
Punt de rosada: 18.4 °C 14.4 °C 16.1 °C
Humitat: 85 % 50 % 67 %
Wind Speed: 24.1 km/h 0.0 km/h 11.1 km/h
RĂ fegues de vent: 24.1 km/h - -
Vent:- - East
Pression baro: 1013.8 hPa 1005.0 hPa -
Precipitacions: 0.0 mm    
Historical Graphs
 
 
Dades de taula per Juny 13, 2016
Temps Temperatura Punt de rosada Pression baro Vent Wind Speed RĂ fegues de vent Humitat Rainfall Rate (Hourly)
00:00 18.8 °C 15.4 °C 1013.8 hPa ESE 3.2 km/h 6.4 km/h 81 % 0.0 mm
00:10 18.8 °C 15.4 °C 1013.8 hPa ESE 3.2 km/h 6.4 km/h 81 % 0.0 mm
00:20 18.7 °C 15.2 °C 1012.8 hPa ESE 3.2 km/h 6.4 km/h 80 % 0.0 mm
00:30 18.5 °C 15.0 °C 1013.8 hPa ESE 3.2 km/h 6.4 km/h 80 % 0.0 mm
00:40 18.4 °C 14.9 °C 1013.8 hPa ESE 3.2 km/h 6.4 km/h 80 % 0.0 mm
00:50 18.3 °C 14.8 °C 1012.8 hPa ESE 3.2 km/h 6.4 km/h 80 % 0.0 mm
01:00 18.2 °C 14.5 °C 1012.8 hPa ESE 3.2 km/h 6.4 km/h 79 % 0.0 mm
01:10 18.1 °C 14.4 °C 1012.8 hPa ESE 3.2 km/h 6.4 km/h 79 % 0.0 mm
01:20 18.1 °C 14.6 °C 1013.8 hPa ESE 3.2 km/h 6.4 km/h 80 % 0.0 mm
01:30 18.0 °C 14.5 °C 1013.8 hPa ESE 3.2 km/h 6.4 km/h 80 % 0.0 mm
01:40 18.0 °C 14.5 °C 1013.8 hPa ESE 3.2 km/h 6.4 km/h 80 % 0.0 mm
01:50 18.0 °C 14.5 °C 1013.8 hPa ESE 3.2 km/h 6.4 km/h 80 % 0.0 mm
02:00 18.0 °C 14.5 °C 1013.8 hPa East 1.6 km/h 6.4 km/h 80 % 0.0 mm
02:10 17.9 °C 14.6 °C 1013.8 hPa NE 3.2 km/h 4.8 km/h 81 % 0.0 mm
02:20 18.1 °C 14.8 °C 1012.8 hPa NNE 1.6 km/h 4.8 km/h 81 % 0.0 mm
02:30 18.5 °C 15.0 °C 1012.8 hPa NNE 3.2 km/h 4.8 km/h 80 % 0.0 mm
02:40 18.6 °C 15.1 °C 1012.8 hPa ENE 3.2 km/h 4.8 km/h 80 % 0.0 mm
02:50 19.0 °C 14.9 °C 1012.8 hPa Calm   4.8 km/h 77 % 0.0 mm
03:00 19.0 °C 14.9 °C 1012.8 hPa ENE 3.2 km/h 6.4 km/h 77 % 0.0 mm
03:10 19.4 °C 15.1 °C 1012.8 hPa NE 4.8 km/h 6.4 km/h 76 % 0.0 mm
03:20 20.0 °C 15.2 °C 1013.8 hPa NE 3.2 km/h 6.4 km/h 74 % 0.0 mm
03:30 20.2 °C 15.2 °C 1013.8 hPa NNE 4.8 km/h 8.0 km/h 73 % 0.0 mm
08:33 20.4 °C 15.4 °C 1013.8 hPa NE 5.6 km/h 5.6 km/h 73 % 0.0 mm
08:38 20.4 °C 15.4 °C 1013.8 hPa ENE 7.4 km/h 7.4 km/h 73 % 0.0 mm
08:43 20.6 °C 15.6 °C 1013.8 hPa ESE 7.4 km/h 7.4 km/h 73 % 0.0 mm
08:48 20.7 °C 15.4 °C 1013.8 hPa NE 7.6 km/h 7.6 km/h 72 % 0.0 mm
08:53 20.8 °C 15.8 °C 1013.8 hPa ENE 6.4 km/h 6.4 km/h 73 % 0.0 mm
08:58 20.9 °C 15.7 °C 1013.8 hPa NNE 7.4 km/h 7.4 km/h 72 % 0.0 mm
09:03 21.0 °C 15.8 °C 1013.8 hPa East 7.4 km/h 7.4 km/h 72 % 0.0 mm
09:08 21.1 °C 15.6 °C 1013.8 hPa ENE 7.4 km/h 7.4 km/h 71 % 0.0 mm
09:13 21.3 °C 15.8 °C 1013.8 hPa NE 9.3 km/h 9.3 km/h 71 % 0.0 mm
09:18 21.5 °C 16.0 °C 1013.8 hPa NE 9.0 km/h 9.0 km/h 71 % 0.0 mm
09:28 22.2 °C 16.4 °C 1013.8 hPa East 7.4 km/h 7.4 km/h 70 % 0.0 mm
09:33 22.4 °C 16.4 °C 1013.8 hPa NNE 11.1 km/h 11.1 km/h 69 % 0.0 mm
09:38 22.2 °C 16.2 °C 1013.8 hPa ESE 10.3 km/h 10.3 km/h 69 % 0.0 mm
09:43 22.2 °C 16.2 °C 1012.8 hPa ESE 9.3 km/h 9.3 km/h 69 % 0.0 mm
09:48 22.4 °C 16.2 °C 1012.8 hPa East 11.1 km/h 11.1 km/h 68 % 0.0 mm
09:53 22.6 °C 16.4 °C 1012.8 hPa ENE 9.3 km/h 9.3 km/h 68 % 0.0 mm
09:58 22.7 °C 16.3 °C 1012.8 hPa ESE 13.0 km/h 13.0 km/h 67 % 0.0 mm
10:03 22.6 °C 16.2 °C 1012.8 hPa East 13.0 km/h 13.0 km/h 67 % 0.0 mm
10:08 22.6 °C 16.2 °C 1012.8 hPa ESE 9.3 km/h 9.3 km/h 67 % 0.0 mm
10:13 23.0 °C 16.3 °C 1012.8 hPa ESE 13.0 km/h 13.0 km/h 66 % 0.0 mm
10:18 22.8 °C 16.1 °C 1012.8 hPa ESE 13.0 km/h 13.0 km/h 66 % 0.0 mm
10:33 23.8 °C 16.6 °C 1011.7 hPa ESE 14.8 km/h 14.8 km/h 64 % 0.0 mm
10:38 24.0 °C 16.5 °C 1011.7 hPa East 3.7 km/h 3.7 km/h 63 % 0.0 mm
10:44 24.2 °C 16.4 °C 1011.7 hPa SW 5.6 km/h 5.6 km/h 62 % 0.0 mm
10:49 24.7 °C 16.9 °C 1011.7 hPa South 7.4 km/h 7.4 km/h 62 % 0.0 mm
10:54 25.0 °C 16.2 °C 1011.7 hPa East 7.4 km/h 7.4 km/h 58 % 0.0 mm
10:59 25.1 °C 16.5 °C 1010.7 hPa SW 6.4 km/h 6.4 km/h 59 % 0.0 mm
11:04 25.5 °C 16.3 °C 1010.7 hPa South 7.4 km/h 7.4 km/h 57 % 0.0 mm
11:09 25.4 °C 16.0 °C 1010.7 hPa ESE 5.6 km/h 5.6 km/h 56 % 0.0 mm
11:14 25.3 °C 15.9 °C 1011.7 hPa South 5.8 km/h 5.8 km/h 56 % 0.0 mm
11:19 25.5 °C 16.1 °C 1011.7 hPa WSW 5.6 km/h 5.6 km/h 56 % 0.0 mm
11:24 25.6 °C 15.9 °C 1011.7 hPa ENE 4.2 km/h 4.2 km/h 55 % 0.0 mm
11:29 25.7 °C 16.0 °C 1010.7 hPa SE 5.6 km/h 5.6 km/h 55 % 0.0 mm
11:34 26.0 °C 15.9 °C 1010.7 hPa ESE 7.4 km/h 7.4 km/h 54 % 0.0 mm
11:39 26.5 °C 16.2 °C 1010.7 hPa ESE 9.3 km/h 9.3 km/h 53 % 0.0 mm
11:49 26.7 °C 16.3 °C 1010.7 hPa ESE 9.3 km/h 9.3 km/h 53 % 0.0 mm
11:54 26.3 °C 15.7 °C 1010.7 hPa SW 9.3 km/h 9.3 km/h 52 % 0.0 mm
11:59 26.7 °C 16.0 °C 1010.7 hPa SW 7.4 km/h 7.4 km/h 52 % 0.0 mm
12:09 27.0 °C 15.7 °C 1010.7 hPa SSE 9.3 km/h 9.3 km/h 50 % 0.0 mm
12:24 26.3 °C 15.9 °C 1010.0 hPa ESE 16.7 km/h 16.7 km/h 53 % 0.0 mm
12:34 26.0 °C 15.9 °C 1010.0 hPa ESE 20.4 km/h 20.4 km/h 54 % 0.0 mm
12:39 25.6 °C 15.6 °C 1010.0 hPa ESE 18.5 km/h 18.5 km/h 54 % 0.0 mm
12:44 25.8 °C 16.1 °C 1010.0 hPa East 20.4 km/h 20.4 km/h 55 % 0.0 mm
12:54 25.2 °C 15.8 °C 1010.0 hPa ENE 20.4 km/h 20.4 km/h 56 % 0.0 mm
12:59 25.6 °C 16.2 °C 1009.0 hPa NE 16.7 km/h 16.7 km/h 56 % 0.0 mm
13:04 25.7 °C 16.3 °C 1009.0 hPa East 23.3 km/h 23.3 km/h 56 % 0.0 mm
13:09 26.0 °C 16.6 °C 1009.0 hPa East 14.8 km/h 14.8 km/h 56 % 0.0 mm
13:14 26.0 °C 16.6 °C 1010.0 hPa ENE 10.3 km/h 10.3 km/h 56 % 0.0 mm
13:19 26.0 °C 16.6 °C 1010.0 hPa ENE 13.0 km/h 13.0 km/h 56 % 0.0 mm
13:24 26.0 °C 16.6 °C 1010.0 hPa ENE 13.0 km/h 13.0 km/h 56 % 0.0 mm
13:34 26.0 °C 16.6 °C 1009.0 hPa NNE 9.3 km/h 9.3 km/h 56 % 0.0 mm
13:39 25.9 °C 16.4 °C 1009.0 hPa NE 13.0 km/h 13.0 km/h 56 % 0.0 mm
13:44 25.6 °C 16.2 °C 1009.0 hPa ESE 13.0 km/h 13.0 km/h 56 % 0.0 mm
13:49 25.3 °C 16.2 °C 1009.0 hPa ESE 14.8 km/h 14.8 km/h 57 % 0.0 mm
13:54 25.2 °C 16.3 °C 1009.0 hPa ESE 16.7 km/h 16.7 km/h 58 % 0.0 mm
13:59 25.1 °C 16.5 °C 1008.0 hPa ENE 13.0 km/h 13.0 km/h 59 % 0.0 mm
14:04 25.1 °C 16.5 °C 1008.0 hPa ESE 15.6 km/h 15.6 km/h 59 % 0.0 mm
14:09 25.2 °C 16.9 °C 1008.0 hPa ENE 11.1 km/h 11.1 km/h 60 % 0.0 mm
14:14 25.1 °C 16.8 °C 1008.0 hPa ENE 16.7 km/h 16.7 km/h 60 % 0.0 mm
14:19 25.2 °C 16.9 °C 1008.0 hPa ENE 13.0 km/h 13.0 km/h 60 % 0.0 mm
14:24 25.2 °C 16.9 °C 1008.0 hPa NE 16.7 km/h 16.7 km/h 60 % 0.0 mm
14:29 25.2 °C 16.9 °C 1008.0 hPa ESE 13.0 km/h 13.0 km/h 60 % 0.0 mm
14:34 25.0 °C 16.9 °C 1008.0 hPa ESE 16.1 km/h 16.1 km/h 61 % 0.0 mm
14:44 24.7 °C 17.2 °C 1009.0 hPa NNE 13.0 km/h 13.0 km/h 63 % 0.0 mm
14:49 24.8 °C 17.3 °C 1009.0 hPa East 13.0 km/h 13.0 km/h 63 % 0.0 mm
14:54 24.9 °C 17.4 °C 1009.0 hPa NE 11.1 km/h 11.1 km/h 63 % 0.0 mm
14:59 24.6 °C 17.1 °C 1009.0 hPa ESE 20.4 km/h 20.4 km/h 63 % 0.0 mm
15:04 24.4 °C 17.2 °C 1009.0 hPa ESE 14.8 km/h 14.8 km/h 64 % 0.0 mm
15:09 24.8 °C 17.5 °C 1009.0 hPa ESE 16.7 km/h 16.7 km/h 64 % 0.0 mm
15:14 24.5 °C 17.5 °C 1009.0 hPa East 18.5 km/h 18.5 km/h 65 % 0.0 mm
15:19 24.5 °C 17.5 °C 1009.0 hPa ESE 24.1 km/h 24.1 km/h 65 % 0.0 mm
15:24 24.8 °C 17.8 °C 1009.0 hPa ESE 13.0 km/h 13.0 km/h 65 % 0.0 mm
15:29 25.1 °C 17.6 °C 1008.0 hPa ESE 18.5 km/h 18.5 km/h 63 % 0.0 mm
15:34 25.0 °C 17.7 °C 1008.0 hPa ENE 14.8 km/h 14.8 km/h 64 % 0.0 mm
15:44 24.8 °C 17.8 °C 1009.0 hPa NE 14.8 km/h 14.8 km/h 65 % 0.0 mm
15:49 24.6 °C 17.6 °C 1009.0 hPa ESE 18.5 km/h 18.5 km/h 65 % 0.0 mm
15:54 24.6 °C 17.6 °C 1009.0 hPa ESE 14.0 km/h 14.0 km/h 65 % 0.0 mm
15:59 24.6 °C 17.6 °C 1008.0 hPa East 11.1 km/h 11.1 km/h 65 % 0.0 mm
16:04 25.0 °C 17.7 °C 1008.0 hPa ENE 13.7 km/h 13.7 km/h 64 % 0.0 mm
16:09 25.4 °C 17.8 °C 1008.0 hPa ESE 14.8 km/h 14.8 km/h 63 % 0.0 mm
16:14 25.5 °C 17.9 °C 1008.0 hPa ESE 14.8 km/h 14.8 km/h 63 % 0.0 mm
16:19 25.4 °C 17.8 °C 1008.0 hPa NNE 14.8 km/h 14.8 km/h 63 % 0.0 mm
16:24 25.8 °C 18.2 °C 1008.0 hPa ENE 6.4 km/h 6.4 km/h 63 % 0.0 mm
16:29 26.3 °C 18.4 °C 1008.0 hPa East 13.0 km/h 13.0 km/h 62 % 0.0 mm
16:34 25.8 °C 17.9 °C 1008.0 hPa NNW 13.0 km/h 13.0 km/h 62 % 0.0 mm
16:39 25.6 °C 17.8 °C 1008.0 hPa ESE 11.1 km/h 11.1 km/h 62 % 0.0 mm
16:44 25.6 °C 17.5 °C 1008.0 hPa ESE 18.5 km/h 18.5 km/h 61 % 0.0 mm
16:49 26.0 °C 17.9 °C 1008.0 hPa East 16.7 km/h 16.7 km/h 61 % 0.0 mm
16:54 26.2 °C 18.1 °C 1008.0 hPa ENE 14.8 km/h 14.8 km/h 61 % 0.0 mm
16:59 26.3 °C 17.9 °C 1008.0 hPa ESE 13.0 km/h 13.0 km/h 60 % 0.0 mm
17:04 26.3 °C 17.9 °C 1008.0 hPa ESE 14.8 km/h 14.8 km/h 60 % 0.0 mm
17:09 26.1 °C 17.7 °C 1008.0 hPa ENE 17.2 km/h 17.2 km/h 60 % 0.0 mm
17:14 26.1 °C 17.4 °C 1008.0 hPa ESE 11.1 km/h 11.1 km/h 59 % 0.0 mm
17:19 26.3 °C 17.7 °C 1008.0 hPa East 14.8 km/h 14.8 km/h 59 % 0.0 mm
17:24 26.1 °C 17.2 °C 1008.0 hPa ENE 16.7 km/h 16.7 km/h 58 % 0.0 mm
17:29 26.3 °C 17.1 °C 1008.0 hPa NNE 16.7 km/h 16.7 km/h 57 % 0.0 mm
17:34 25.8 °C 16.6 °C 1008.0 hPa ESE 13.0 km/h 13.7 km/h 57 % 0.0 mm
17:39 25.4 °C 16.6 °C 1008.0 hPa SE 16.7 km/h 16.7 km/h 58 % 0.0 mm
17:44 25.2 °C 16.1 °C 1008.0 hPa East 16.7 km/h 16.7 km/h 57 % 0.0 mm
17:49 25.5 °C 16.3 °C 1008.0 hPa ESE 20.4 km/h 20.4 km/h 57 % 0.0 mm
17:54 25.4 °C 16.3 °C 1008.0 hPa ESE 13.7 km/h 13.7 km/h 57 % 0.0 mm
17:59 25.4 °C 16.3 °C 1007.0 hPa NNE 20.4 km/h 20.4 km/h 57 % 0.0 mm
18:04 25.8 °C 16.6 °C 1007.0 hPa ESE 18.5 km/h 18.5 km/h 57 % 0.0 mm
18:09 25.8 °C 16.3 °C 1007.0 hPa ENE 10.3 km/h 10.3 km/h 56 % 0.0 mm
18:14 25.7 °C 16.3 °C 1007.0 hPa NE 13.0 km/h 13.0 km/h 56 % 0.0 mm
18:19 25.4 °C 16.0 °C 1007.0 hPa East 18.5 km/h 18.5 km/h 56 % 0.0 mm
18:24 25.2 °C 15.8 °C 1007.0 hPa East 14.8 km/h 14.8 km/h 56 % 0.0 mm
18:29 25.0 °C 15.6 °C 1006.0 hPa ESE 16.9 km/h 16.9 km/h 56 % 0.0 mm
18:34 24.9 °C 15.8 °C 1006.0 hPa NNE 20.4 km/h 20.4 km/h 57 % 0.0 mm
18:39 24.8 °C 15.7 °C 1006.0 hPa ENE 24.1 km/h 24.1 km/h 57 % 0.0 mm
18:44 24.6 °C 15.8 °C 1006.0 hPa ENE 13.0 km/h 15.1 km/h 58 % 0.0 mm
18:49 24.4 °C 15.9 °C 1006.0 hPa ENE 20.4 km/h 20.4 km/h 59 % 0.0 mm
18:54 24.3 °C 15.8 °C 1006.0 hPa ENE 11.1 km/h 11.1 km/h 59 % 0.0 mm
18:59 24.1 °C 15.6 °C 1005.0 hPa NE 10.3 km/h 11.9 km/h 59 % 0.0 mm
19:04 24.0 °C 15.5 °C 1005.0 hPa ESE 13.7 km/h 14.0 km/h 59 % 0.0 mm
19:09 23.8 °C 15.8 °C 1005.0 hPa NE 20.4 km/h 20.4 km/h 61 % 0.0 mm
19:10 20.5 °C 16.1 °C 1009.0 hPa ENE 4.8 km/h 4.8 km/h 76 % 0.0 mm
19:14 23.8 °C 15.8 °C 1006.0 hPa ENE 9.3 km/h 9.3 km/h 61 % 0.0 mm
19:19 23.8 °C 15.8 °C 1006.0 hPa ESE 11.1 km/h 11.1 km/h 61 % 0.0 mm
19:20 20.4 °C 16.2 °C 1009.0 hPa East 4.8 km/h 4.8 km/h 77 % 0.0 mm
19:24 23.8 °C 15.8 °C 1006.0 hPa ESE 13.0 km/h 13.0 km/h 61 % 0.0 mm
19:30 20.4 °C 16.2 °C 1009.0 hPa East 4.8 km/h 4.8 km/h 77 % 0.0 mm
19:39 23.5 °C 15.6 °C 1006.0 hPa ENE 20.4 km/h 20.4 km/h 61 % 0.0 mm
19:40 20.3 °C 16.1 °C 1009.0 hPa East 4.8 km/h 4.8 km/h 77 % 0.0 mm
19:44 23.5 °C 15.6 °C 1006.0 hPa NNE 13.0 km/h 13.0 km/h 61 % 0.0 mm
19:49 23.4 °C 15.7 °C 1006.0 hPa ENE 13.7 km/h 13.7 km/h 62 % 0.0 mm
19:50 20.2 °C 16.2 °C 1010.0 hPa East 4.8 km/h 4.8 km/h 78 % 0.0 mm
19:54 23.3 °C 15.6 °C 1006.0 hPa North 10.0 km/h 12.6 km/h 62 % 0.0 mm
20:00 20.2 °C 16.2 °C 1009.0 hPa East 4.8 km/h 4.8 km/h 78 % 0.0 mm
20:04 23.2 °C 15.5 °C 1006.0 hPa NNE 13.0 km/h 13.0 km/h 62 % 0.0 mm
20:09 23.1 °C 15.4 °C 1006.0 hPa East 16.7 km/h 16.7 km/h 62 % 0.0 mm
20:10 20.1 °C 16.2 °C 1009.0 hPa East 4.8 km/h 4.8 km/h 78 % 0.0 mm
20:14 23.1 °C 15.4 °C 1006.0 hPa ESE 12.6 km/h 12.6 km/h 62 % 0.0 mm
20:19 23.0 °C 15.3 °C 1006.0 hPa ESE 6.1 km/h 11.1 km/h 62 % 0.0 mm
20:20 20.1 °C 16.3 °C 1010.0 hPa East 4.8 km/h 4.8 km/h 79 % 0.0 mm
20:24 22.9 °C 15.5 °C 1006.0 hPa SSE 12.2 km/h 12.2 km/h 63 % 0.0 mm
20:29 22.8 °C 15.4 °C 1006.0 hPa East 10.0 km/h 10.0 km/h 63 % 0.0 mm
20:30 20.0 °C 16.4 °C 1010.0 hPa East 3.2 km/h 4.8 km/h 80 % 0.0 mm
20:39 22.6 °C 15.7 °C 1006.0 hPa ENE 13.0 km/h 13.0 km/h 65 % 0.0 mm
20:40 19.9 °C 16.3 °C 1010.0 hPa ENE 3.2 km/h 4.8 km/h 80 % 0.0 mm
20:44 22.4 °C 15.5 °C 1007.0 hPa ENE 13.0 km/h 13.0 km/h 65 % 0.0 mm
20:49 22.4 °C 15.7 °C 1007.0 hPa ENE 13.0 km/h 13.0 km/h 66 % 0.0 mm
20:50 19.7 °C 16.3 °C 1010.0 hPa NNE 3.2 km/h 3.2 km/h 81 % 0.0 mm
20:54 22.3 °C 15.7 °C 1007.0 hPa ENE 13.0 km/h 13.0 km/h 66 % 0.0 mm
20:59 22.3 °C 15.7 °C 1007.0 hPa ENE 13.0 km/h 13.0 km/h 66 % 0.0 mm
21:00 19.6 °C 16.2 °C 1010.0 hPa NNE 3.2 km/h 3.2 km/h 81 % 0.0 mm
21:04 22.3 °C 15.7 °C 1007.0 hPa ENE 13.0 km/h 13.0 km/h 66 % 0.0 mm
21:09 22.1 °C 15.7 °C 1007.0 hPa ENE 13.0 km/h 13.0 km/h 67 % 0.0 mm
21:10 19.5 °C 16.3 °C 1010.0 hPa NNE 3.2 km/h 3.2 km/h 82 % 0.0 mm
21:14 21.9 °C 15.7 °C 1007.0 hPa ENE 13.0 km/h 13.0 km/h 68 % 0.0 mm
21:19 21.9 °C 15.7 °C 1007.0 hPa ENE 13.0 km/h 13.0 km/h 68 % 0.0 mm
21:20 19.4 °C 16.4 °C 1010.0 hPa NNE 3.2 km/h 3.2 km/h 83 % 0.0 mm
21:24 21.8 °C 15.6 °C 1007.0 hPa ENE 13.0 km/h 13.0 km/h 68 % 0.0 mm
21:29 21.8 °C 15.8 °C 1007.0 hPa ENE 13.0 km/h 13.0 km/h 69 % 0.0 mm
21:30 19.4 °C 16.4 °C 1010.0 hPa NNE 3.2 km/h 3.2 km/h 83 % 0.0 mm
21:34 21.7 °C 15.8 °C 1007.0 hPa ENE 13.0 km/h 13.0 km/h 69 % 0.0 mm
21:39 21.6 °C 15.9 °C 1007.0 hPa ENE 13.0 km/h 13.0 km/h 70 % 0.0 mm
21:40 19.3 °C 16.3 °C 1010.0 hPa NNE 3.2 km/h 3.2 km/h 83 % 0.0 mm
21:44 21.5 °C 15.8 °C 1008.0 hPa ENE 13.0 km/h 13.0 km/h 70 % 0.0 mm
21:49 21.5 °C 15.8 °C 1008.0 hPa ENE 13.0 km/h 13.0 km/h 70 % 0.0 mm
21:50 19.2 °C 16.2 °C 1010.0 hPa NNE 3.2 km/h 3.2 km/h 83 % 0.0 mm
21:54 21.4 °C 15.9 °C 1008.0 hPa ENE 13.0 km/h 13.0 km/h 71 % 0.0 mm
21:59 21.3 °C 15.8 °C 1008.0 hPa ENE 13.0 km/h 13.0 km/h 71 % 0.0 mm
22:00 19.2 °C 16.4 °C 1010.0 hPa NNE 3.2 km/h 3.2 km/h 84 % 0.0 mm
22:04 21.3 °C 15.8 °C 1008.0 hPa ENE 13.0 km/h 13.0 km/h 71 % 0.0 mm
22:09 21.2 °C 15.7 °C 1008.0 hPa ENE 13.0 km/h 13.0 km/h 71 % 0.0 mm
22:10 19.1 °C 16.3 °C 1010.0 hPa NNE 3.2 km/h 3.2 km/h 84 % 0.0 mm
22:14 21.2 °C 15.7 °C 1008.0 hPa ENE 13.0 km/h 13.0 km/h 71 % 0.0 mm
22:20 21.1 °C 15.6 °C 1008.0 hPa ENE 12.9 km/h 12.9 km/h 71 % 0.0 mm
22:25 21.1 °C 15.6 °C 1008.0 hPa ENE 13.0 km/h 13.0 km/h 71 % 0.0 mm
22:30 21.1 °C 15.6 °C 1008.0 hPa ENE 13.0 km/h 13.0 km/h 71 % 0.0 mm
22:35 21.1 °C 15.6 °C 1008.0 hPa ENE 13.0 km/h 13.0 km/h 71 % 0.0 mm
22:40 21.0 °C 15.6 °C 1008.0 hPa ENE 13.0 km/h 13.0 km/h 71 % 0.0 mm
22:45 21.0 °C 15.6 °C 1009.0 hPa ENE 13.0 km/h 13.0 km/h 71 % 0.0 mm
22:50 18.9 °C 16.3 °C 1010.0 hPa NNE 3.2 km/h 3.2 km/h 85 % 0.0 mm
22:55 20.9 °C 15.7 °C 1009.0 hPa ENE 13.0 km/h 13.0 km/h 72 % 0.0 mm
23:00 20.9 °C 15.7 °C 1009.0 hPa ENE 12.9 km/h 12.9 km/h 72 % 0.0 mm
23:05 20.8 °C 15.6 °C 1009.0 hPa ENE 13.0 km/h 13.0 km/h 72 % 0.0 mm
23:10 20.8 °C 15.6 °C 1009.0 hPa ENE 13.0 km/h 13.0 km/h 72 % 0.0 mm
23:15 20.7 °C 15.7 °C 1010.0 hPa ENE 13.0 km/h 13.0 km/h 73 % 0.0 mm
23:20 20.7 °C 15.7 °C 1010.0 hPa ENE 13.0 km/h 13.0 km/h 73 % 0.0 mm
23:25 20.7 °C 15.7 °C 1010.0 hPa ENE 13.0 km/h 13.0 km/h 73 % 0.0 mm
23:30 20.7 °C 15.7 °C 1009.0 hPa ENE 13.0 km/h 13.0 km/h 73 % 0.0 mm
23:35 20.6 °C 15.8 °C 1009.0 hPa ENE 13.0 km/h 13.0 km/h 74 % 0.0 mm
23:40 20.6 °C 15.8 °C 1009.0 hPa ENE 13.0 km/h 13.0 km/h 74 % 0.0 mm
23:45 20.6 °C 15.8 °C 1010.0 hPa ENE 13.0 km/h 13.0 km/h 74 % 0.0 mm
23:50 20.5 °C 15.9 °C 1010.0 hPa ENE 13.0 km/h 13.0 km/h 75 % 0.0 mm
23:55 20.5 °C 15.9 °C 1010.0 hPa ENE 13.0 km/h 13.0 km/h 75 % 0.0 mm
Meteo Sesrovires
Elogis d' Weather Underground - 3.5 mb

Guio original per  Jim McMurry - jmcmurry@mwt.net Adaptat per a la plantilla per  Wim van der Kuil - Leuven-Template.eu

Trobareu la nostra informacio del temps tambe a:

Weather Underground

AWEKAS